S70OTHELLO MUNI
METARs for airports near S70, sorted by distance:
N 26 nm 1188' KMWH 161052Z 00000KT 10SM CLR 04/03 A3011
S 30 nm 394' KRLD 161135Z 00000KT 10SM CLR 05/04 A3011
S 31 nm 410' KPSC 161053Z 35003KT 10SM CLR 04/03 A3011
NW 35 nm 1276' KEPH 161053Z 35004KT 10SM CLR 06/03 A3010
SE 53 nm 1194' KALW 161053Z 10007KT 10SM CLR 09/01 A3011
S 58 nm 644' KHRI 161053Z 16005KT 10SM CLR 06/03 A3012
NW 58 nm 1248' KEAT 161055Z 29006KT 10SM CLR 08/03 A3010
W 61 nm 1763' KELN 161053Z 06003KT 10SM CLR 02/M01 A3011
W 61 nm 1098' KYKM 161053Z 27006KT 10SM CLR 01/01 A3011
S 66 nm 1496' KPDT 161053Z 00000KT 10SM CLR 05/01 A3012
NE 76 nm 2462' KSKA 161057Z 07005KT 7SM CLR 03/03 A3012
NE 80 nm 2385' KGEG 161053Z 08003KT 10SM FEW120 06/04 A3013
E 81 nm 2566' KPUW 161053Z 06003KT 10SM CLR 07/01 A3017
E 88 nm 1442' KLWS 161056Z 00000KT 10SM CLR 09/01 A3015
NE 89 nm 1956' KSFF 161116Z 00000KT 4SM BR FEW003 06/05 A3014
NE 97 nm 2210' KDEW 161053Z 01003KT 10SM OVC100 07/05 A3014
TAFs for airports near S70, sorted by distance:
N 26 nm 1188' KMWH TAF KMWH 161126Z 1612/1712 01004KT P6SM SCT100 SCT250
  FM161800 17006KT P6SM FEW150 SCT250
  FM170400 02003KT P6SM FEW150 SCT250
  FM171000 01005KT P6SM SCT120 BKN200
S 31 nm 410' KPSC TAF KPSC 161120Z 1612/1712 VRB06KT P6SM BKN200
SE 53 nm 1194' KALW TAF KALW 161120Z 1612/1712 11007KT P6SM BKN200
  FM161800 24005KT P6SM SCT200
  FM170000 13005KT P6SM SKC
NW 58 nm 1248' KEAT TAF KEAT 161126Z 1612/1712 28004KT P6SM SCT100 SCT200
  FM162000 12004KT P6SM FEW150 SCT250
  FM170300 VRB02KT P6SM SCT120 SCT250
  FM171000 30006KT P6SM SCT120 BKN180
W 61 nm 1098' KYKM TAF KYKM 161120Z 1612/1712 29006KT P6SM BKN180
  FM161900 VRB03KT P6SM BKN200
  FM170400 28006KT P6SM BKN180
S 66 nm 1496' KPDT TAF KPDT 161120Z 1612/1712 13006KT P6SM SCT200
  FM161800 31006KT P6SM SKC
  FM170500 15006KT P6SM SKC
NE 76 nm 2462' KSKA TAF KSKA 161100Z 1611/1717 06006KT 9999 SCT150 QNH3014INS
  BECMG 1617/1618 18009KT 9999 FEW200 QNH2980INS WND 14006KT AFT 1703 TX18/1623Z TN03/1613Z
NE 80 nm 2385' KGEG TAF KGEG 161126Z 1612/1712 07003KT P6SM SCT120
  TEMPO 1612/1615 3SM MIFG SCT001
  FM161800 18007G13KT P6SM SCT250
  FM170200 07004KT P6SM FEW150
E 81 nm 2566' KPUW TAF KPUW 161126Z 1612/1712 10006KT P6SM FEW100
  FM161800 12011KT P6SM FEW250
E 88 nm 1442' KLWS TAF KLWS 161126Z 1612/1712 10006KT P6SM FEW100
  FM161600 10006KT P6SM FEW250
NE 89 nm 1956' KSFF TAF KSFF 161126Z 1612/1712 00000KT P6SM SCT120
  TEMPO 1612/1615 2SM BR FEW003
  FM161800 18006KT P6SM SCT250
  FM170200 VRB03KT P6SM FEW150

Shortcut to this page: http://wxbay.com.

Data may contain errors.